sensor_id;sensor_type;location;lat;lon;timestamp;temperature;humidity
4677;DHT22;2352;48.180;11.478;2023-09-18T00:00:02;19.40;99.90
4677;DHT22;2352;48.180;11.478;2023-09-18T00:03:07;19.40;99.90
4677;DHT22;2352;48.180;11.478;2023-09-18T00:06:10;19.30;99.90
4677;DHT22;2352;48.180;11.478;2023-09-18T00:09:13;19.30;99.90
4677;DHT22;2352;48.180;11.478;2023-09-18T00:12:16;19.30;99.90
4677;DHT22;2352;48.180;11.478;2023-09-18T00:15:20;19.30;99.90
4677;DHT22;2352;48.180;11.478;2023-09-18T00:18:23;19.20;99.90
4677;DHT22;2352;48.180;11.478;2023-09-18T00:21:27;19.20;99.90
4677;DHT22;2352;48.180;11.478;2023-09-18T00:24:32;19.20;99.90
4677;DHT22;2352;48.180;11.478;2023-09-18T00:27:35;19.20;99.90
4677;DHT22;2352;48.180;11.478;2023-09-18T00:30:44;19.10;99.90
4677;DHT22;2352;48.180;11.478;2023-09-18T00:33:49;19.10;99.90
4677;DHT22;2352;48.180;11.478;2023-09-18T00:36:52;19.10;99.90
4677;DHT22;2352;48.180;11.478;2023-09-18T00:39:55;19.10;99.90
4677;DHT22;2352;48.180;11.478;2023-09-18T00:42:58;19.10;99.90
4677;DHT22;2352;48.180;11.478;2023-09-18T00:46:03;19.00;99.90
4677;DHT22;2352;48.180;11.478;2023-09-18T00:49:06;19.00;99.90
4677;DHT22;2352;48.180;11.478;2023-09-18T00:52:12;19.00;99.90
4677;DHT22;2352;48.180;11.478;2023-09-18T00:55:15;19.00;99.90
4677;DHT22;2352;48.180;11.478;2023-09-18T00:58:19;18.90;99.90
4677;DHT22;2352;48.180;11.478;2023-09-18T01:01:23;19.00;99.90
4677;DHT22;2352;48.180;11.478;2023-09-18T01:04:27;18.90;99.90
4677;DHT22;2352;48.180;11.478;2023-09-18T01:07:31;18.90;99.90
4677;DHT22;2352;48.180;11.478;2023-09-18T01:10:40;18.80;99.90
4677;DHT22;2352;48.180;11.478;2023-09-18T01:13:53;18.80;99.90
4677;DHT22;2352;48.180;11.478;2023-09-18T01:16:59;18.70;99.90
4677;DHT22;2352;48.180;11.478;2023-09-18T01:20:05;18.70;99.90
4677;DHT22;2352;48.180;11.478;2023-09-18T01:23:09;18.60;99.90
4677;DHT22;2352;48.180;11.478;2023-09-18T01:26:13;18.60;99.90
4677;DHT22;2352;48.180;11.478;2023-09-18T01:29:16;18.60;99.90
4677;DHT22;2352;48.180;11.478;2023-09-18T01:32:25;18.60;99.90
4677;DHT22;2352;48.180;11.478;2023-09-18T01:35:31;18.60;99.90
4677;DHT22;2352;48.180;11.478;2023-09-18T01:38:37;18.60;99.90
4677;DHT22;2352;48.180;11.478;2023-09-18T01:41:41;18.50;99.90
4677;DHT22;2352;48.180;11.478;2023-09-18T01:44:45;18.50;99.90
4677;DHT22;2352;48.180;11.478;2023-09-18T01:47:48;18.50;99.90
4677;DHT22;2352;48.180;11.478;2023-09-18T01:50:51;18.50;99.90
4677;DHT22;2352;48.180;11.478;2023-09-18T01:53:56;18.50;99.90
4677;DHT22;2352;48.180;11.478;2023-09-18T01:56:59;18.40;99.90
4677;DHT22;2352;48.180;11.478;2023-09-18T02:00:02;18.40;99.90
4677;DHT22;2352;48.180;11.478;2023-09-18T02:03:10;18.30;99.90
4677;DHT22;2352;48.180;11.478;2023-09-18T02:06:33;18.30;99.90
4677;DHT22;2352;48.180;11.478;2023-09-18T02:09:37;18.30;99.90
4677;DHT22;2352;48.180;11.478;2023-09-18T02:12:40;18.30;99.90
4677;DHT22;2352;48.180;11.478;2023-09-18T02:15:43;18.30;99.90
4677;DHT22;2352;48.180;11.478;2023-09-18T02:18:46;18.20;99.90
4677;DHT22;2352;48.180;11.478;2023-09-18T02:21:49;18.20;99.90
4677;DHT22;2352;48.180;11.478;2023-09-18T02:24:54;18.20;99.90
4677;DHT22;2352;48.180;11.478;2023-09-18T02:27:56;18.20;99.90
4677;DHT22;2352;48.180;11.478;2023-09-18T02:30:59;18.30;99.90
4677;DHT22;2352;48.180;11.478;2023-09-18T02:34:02;18.30;99.90
4677;DHT22;2352;48.180;11.478;2023-09-18T02:37:06;18.20;99.90
4677;DHT22;2352;48.180;11.478;2023-09-18T02:40:11;18.20;99.90
4677;DHT22;2352;48.180;11.478;2023-09-18T02:43:14;18.20;99.90
4677;DHT22;2352;48.180;11.478;2023-09-18T02:46:17;18.20;99.90
4677;DHT22;2352;48.180;11.478;2023-09-18T02:49:20;18.20;99.90
4677;DHT22;2352;48.180;11.478;2023-09-18T02:52:23;18.20;99.90
4677;DHT22;2352;48.180;11.478;2023-09-18T02:55:28;18.10;99.90
4677;DHT22;2352;48.180;11.478;2023-09-18T02:58:31;18.10;99.90
4677;DHT22;2352;48.180;11.478;2023-09-18T03:01:34;18.20;99.90
4677;DHT22;2352;48.180;11.478;2023-09-18T03:04:37;18.10;99.90
4677;DHT22;2352;48.180;11.478;2023-09-18T03:07:40;18.10;99.90
4677;DHT22;2352;48.180;11.478;2023-09-18T03:10:44;18.00;99.90
4677;DHT22;2352;48.180;11.478;2023-09-18T03:13:47;18.00;99.90
4677;DHT22;2352;48.180;11.478;2023-09-18T03:16:50;18.00;99.90
4677;DHT22;2352;48.180;11.478;2023-09-18T03:19:53;18.00;99.90
4677;DHT22;2352;48.180;11.478;2023-09-18T03:22:57;17.90;99.90
4677;DHT22;2352;48.180;11.478;2023-09-18T03:26:02;18.00;99.90
4677;DHT22;2352;48.180;11.478;2023-09-18T03:29:05;17.80;99.90
4677;DHT22;2352;48.180;11.478;2023-09-18T03:32:08;17.80;99.90
4677;DHT22;2352;48.180;11.478;2023-09-18T03:35:14;17.80;99.90
4677;DHT22;2352;48.180;11.478;2023-09-18T03:38:20;17.80;99.90
4677;DHT22;2352;48.180;11.478;2023-09-18T03:41:24;17.70;99.90
4677;DHT22;2352;48.180;11.478;2023-09-18T03:44:27;17.70;99.90
4677;DHT22;2352;48.180;11.478;2023-09-18T03:47:30;17.70;99.90
4677;DHT22;2352;48.180;11.478;2023-09-18T03:50:33;17.70;99.90
4677;DHT22;2352;48.180;11.478;2023-09-18T03:53:37;17.60;99.90
4677;DHT22;2352;48.180;11.478;2023-09-18T03:56:41;17.60;99.90
4677;DHT22;2352;48.180;11.478;2023-09-18T03:59:44;17.60;99.90
4677;DHT22;2352;48.180;11.478;2023-09-18T04:02:47;17.60;99.90
4677;DHT22;2352;48.180;11.478;2023-09-18T04:05:50;17.60;99.90
4677;DHT22;2352;48.180;11.478;2023-09-18T04:08:53;17.60;99.90
4677;DHT22;2352;48.180;11.478;2023-09-18T04:11:58;17.60;99.90
4677;DHT22;2352;48.180;11.478;2023-09-18T04:15:01;17.60;99.90
4677;DHT22;2352;48.180;11.478;2023-09-18T04:18:04;17.60;99.90
4677;DHT22;2352;48.180;11.478;2023-09-18T04:21:07;17.50;99.90
4677;DHT22;2352;48.180;11.478;2023-09-18T04:24:12;17.50;99.90
4677;DHT22;2352;48.180;11.478;2023-09-18T04:27:17;17.50;99.90
4677;DHT22;2352;48.180;11.478;2023-09-18T04:30:20;17.50;99.90
4677;DHT22;2352;48.180;11.478;2023-09-18T04:33:23;17.60;99.90
4677;DHT22;2352;48.180;11.478;2023-09-18T04:36:27;17.50;99.90
4677;DHT22;2352;48.180;11.478;2023-09-18T04:39:30;17.40;99.90
4677;DHT22;2352;48.180;11.478;2023-09-18T04:42:37;17.40;99.90
4677;DHT22;2352;48.180;11.478;2023-09-18T04:45:41;17.40;99.90
4677;DHT22;2352;48.180;11.478;2023-09-18T04:48:44;17.40;99.90
4677;DHT22;2352;48.180;11.478;2023-09-18T04:51:48;17.50;99.90
4677;DHT22;2352;48.180;11.478;2023-09-18T04:54:51;17.50;99.90
4677;DHT22;2352;48.180;11.478;2023-09-18T04:57:57;17.40;99.90
4677;DHT22;2352;48.180;11.478;2023-09-18T05:01:01;17.30;99.90
4677;DHT22;2352;48.180;11.478;2023-09-18T05:04:04;17.30;99.90
4677;DHT22;2352;48.180;11.478;2023-09-18T05:07:08;17.30;99.90
4677;DHT22;2352;48.180;11.478;2023-09-18T05:10:11;17.20;99.90
4677;DHT22;2352;48.180;11.478;2023-09-18T05:13:15;17.30;99.90
4677;DHT22;2352;48.180;11.478;2023-09-18T05:16:18;17.30;99.90
4677;DHT22;2352;48.180;11.478;2023-09-18T05:19:21;17.40;99.90
4677;DHT22;2352;48.180;11.478;2023-09-18T05:22:24;17.40;99.90
4677;DHT22;2352;48.180;11.478;2023-09-18T05:25:28;17.60;99.90
4677;DHT22;2352;48.180;11.478;2023-09-18T05:28:35;17.50;99.90
4677;DHT22;2352;48.180;11.478;2023-09-18T05:31:38;17.70;99.90
4677;DHT22;2352;48.180;11.478;2023-09-18T05:34:41;17.70;99.90
4677;DHT22;2352;48.180;11.478;2023-09-18T05:37:44;17.80;99.90
4677;DHT22;2352;48.180;11.478;2023-09-18T05:40:47;17.80;99.90
4677;DHT22;2352;48.180;11.478;2023-09-18T05:43:51;17.90;99.90
4677;DHT22;2352;48.180;11.478;2023-09-18T05:46:55;17.90;99.90
4677;DHT22;2352;48.180;11.478;2023-09-18T05:49:58;18.00;99.90
4677;DHT22;2352;48.180;11.478;2023-09-18T05:53:01;18.20;99.90
4677;DHT22;2352;48.180;11.478;2023-09-18T05:56:06;18.30;99.90
4677;DHT22;2352;48.180;11.478;2023-09-18T05:59:12;18.40;99.90
4677;DHT22;2352;48.180;11.478;2023-09-18T06:02:17;18.40;99.90
4677;DHT22;2352;48.180;11.478;2023-09-18T06:05:22;18.50;99.90
4677;DHT22;2352;48.180;11.478;2023-09-18T06:08:26;18.70;99.90
4677;DHT22;2352;48.180;11.478;2023-09-18T06:11:30;18.80;99.90
4677;DHT22;2352;48.180;11.478;2023-09-18T06:14:35;18.80;99.90
4677;DHT22;2352;48.180;11.478;2023-09-18T06:17:41;18.80;99.90
4677;DHT22;2352;48.180;11.478;2023-09-18T06:20:44;19.10;99.90
4677;DHT22;2352;48.180;11.478;2023-09-18T06:23:47;19.40;99.90
4677;DHT22;2352;48.180;11.478;2023-09-18T06:26:50;19.00;99.90
4677;DHT22;2352;48.180;11.478;2023-09-18T06:29:56;19.30;99.90
4677;DHT22;2352;48.180;11.478;2023-09-18T06:32:59;19.30;99.90
4677;DHT22;2352;48.180;11.478;2023-09-18T06:36:03;19.60;99.90
4677;DHT22;2352;48.180;11.478;2023-09-18T06:39:06;19.30;99.90
4677;DHT22;2352;48.180;11.478;2023-09-18T06:42:09;19.30;99.90
4677;DHT22;2352;48.180;11.478;2023-09-18T06:45:14;19.50;99.90
4677;DHT22;2352;48.180;11.478;2023-09-18T06:48:17;19.60;99.90
4677;DHT22;2352;48.180;11.478;2023-09-18T06:51:23;19.70;99.90
4677;DHT22;2352;48.180;11.478;2023-09-18T06:54:43;20.00;99.90
4677;DHT22;2352;48.180;11.478;2023-09-18T06:57:46;20.20;99.90
4677;DHT22;2352;48.180;11.478;2023-09-18T07:00:51;20.20;99.90
4677;DHT22;2352;48.180;11.478;2023-09-18T07:03:54;20.20;99.90
4677;DHT22;2352;48.180;11.478;2023-09-18T07:06:58;20.40;99.90
4677;DHT22;2352;48.180;11.478;2023-09-18T07:10:01;20.40;99.90
4677;DHT22;2352;48.180;11.478;2023-09-18T07:13:06;20.40;99.90
4677;DHT22;2352;48.180;11.478;2023-09-18T07:16:11;20.40;99.90
4677;DHT22;2352;48.180;11.478;2023-09-18T07:19:15;20.50;99.90
4677;DHT22;2352;48.180;11.478;2023-09-18T07:22:19;20.70;99.90
4677;DHT22;2352;48.180;11.478;2023-09-18T07:25:22;21.00;99.90
4677;DHT22;2352;48.180;11.478;2023-09-18T07:28:25;21.00;99.90
4677;DHT22;2352;48.180;11.478;2023-09-18T07:31:29;21.10;99.90
4677;DHT22;2352;48.180;11.478;2023-09-18T07:34:32;21.10;99.90
4677;DHT22;2352;48.180;11.478;2023-09-18T07:37:36;21.10;99.90
4677;DHT22;2352;48.180;11.478;2023-09-18T07:40:39;21.10;99.90
4677;DHT22;2352;48.180;11.478;2023-09-18T07:43:42;21.20;99.90
4677;DHT22;2352;48.180;11.478;2023-09-18T07:46:47;21.30;99.90
4677;DHT22;2352;48.180;11.478;2023-09-18T07:49:50;21.50;99.90
4677;DHT22;2352;48.180;11.478;2023-09-18T07:52:56;21.50;99.90
4677;DHT22;2352;48.180;11.478;2023-09-18T07:55:59;21.70;99.90
4677;DHT22;2352;48.180;11.478;2023-09-18T07:59:07;21.90;99.90
4677;DHT22;2352;48.180;11.478;2023-09-18T08:02:13;22.00;99.90
4677;DHT22;2352;48.180;11.478;2023-09-18T08:05:17;22.10;99.90
4677;DHT22;2352;48.180;11.478;2023-09-18T08:08:21;22.30;99.90
4677;DHT22;2352;48.180;11.478;2023-09-18T08:11:25;22.00;99.90
4677;DHT22;2352;48.180;11.478;2023-09-18T08:14:29;22.40;99.90
4677;DHT22;2352;48.180;11.478;2023-09-18T08:17:33;22.40;99.90
4677;DHT22;2352;48.180;11.478;2023-09-18T08:20:40;22.40;99.90
4677;DHT22;2352;48.180;11.478;2023-09-18T08:23:44;22.50;99.90
4677;DHT22;2352;48.180;11.478;2023-09-18T08:26:48;22.10;99.90
4677;DHT22;2352;48.180;11.478;2023-09-18T08:29:51;22.30;99.90
4677;DHT22;2352;48.180;11.478;2023-09-18T08:32:55;22.30;99.90
4677;DHT22;2352;48.180;11.478;2023-09-18T08:35:58;22.40;99.90
4677;DHT22;2352;48.180;11.478;2023-09-18T08:39:01;22.70;99.90
4677;DHT22;2352;48.180;11.478;2023-09-18T08:42:09;22.50;99.90
4677;DHT22;2352;48.180;11.478;2023-09-18T08:45:18;22.40;99.90
4677;DHT22;2352;48.180;11.478;2023-09-18T08:48:23;22.70;99.90
4677;DHT22;2352;48.180;11.478;2023-09-18T08:51:27;22.80;99.90
4677;DHT22;2352;48.180;11.478;2023-09-18T08:54:31;22.70;99.90
4677;DHT22;2352;48.180;11.478;2023-09-18T08:57:36;22.70;99.90
4677;DHT22;2352;48.180;11.478;2023-09-18T09:00:41;22.70;99.90
4677;DHT22;2352;48.180;11.478;2023-09-18T09:03:45;22.60;99.90
4677;DHT22;2352;48.180;11.478;2023-09-18T09:06:49;22.70;99.90
4677;DHT22;2352;48.180;11.478;2023-09-18T09:09:52;22.70;99.90
4677;DHT22;2352;48.180;11.478;2023-09-18T09:12:57;22.70;99.90
4677;DHT22;2352;48.180;11.478;2023-09-18T09:16:00;22.80;99.90
4677;DHT22;2352;48.180;11.478;2023-09-18T09:19:05;22.50;99.90
4677;DHT22;2352;48.180;11.478;2023-09-18T09:22:09;22.80;99.90
4677;DHT22;2352;48.180;11.478;2023-09-18T09:25:25;22.90;99.90
4677;DHT22;2352;48.180;11.478;2023-09-18T09:28:34;22.80;99.90
4677;DHT22;2352;48.180;11.478;2023-09-18T09:31:37;22.80;99.90
4677;DHT22;2352;48.180;11.478;2023-09-18T09:34:43;23.00;99.90
4677;DHT22;2352;48.180;11.478;2023-09-18T09:37:46;23.00;99.90
4677;DHT22;2352;48.180;11.478;2023-09-18T09:40:50;23.00;99.90
4677;DHT22;2352;48.180;11.478;2023-09-18T09:43:53;23.00;99.90
4677;DHT22;2352;48.180;11.478;2023-09-18T09:46:59;23.10;99.90
4677;DHT22;2352;48.180;11.478;2023-09-18T09:50:11;23.10;99.90
4677;DHT22;2352;48.180;11.478;2023-09-18T09:53:15;23.10;99.90
4677;DHT22;2352;48.180;11.478;2023-09-18T09:56:18;23.10;99.90
4677;DHT22;2352;48.180;11.478;2023-09-18T09:59:24;23.40;99.90
4677;DHT22;2352;48.180;11.478;2023-09-18T10:02:30;23.40;99.90
4677;DHT22;2352;48.180;11.478;2023-09-18T10:05:37;23.30;99.90
4677;DHT22;2352;48.180;11.478;2023-09-18T10:08:40;23.30;99.90
4677;DHT22;2352;48.180;11.478;2023-09-18T10:11:48;23.40;99.90
4677;DHT22;2352;48.180;11.478;2023-09-18T10:14:53;23.50;99.90
4677;DHT22;2352;48.180;11.478;2023-09-18T10:18:05;23.50;99.90
4677;DHT22;2352;48.180;11.478;2023-09-18T10:21:19;23.60;99.90
4677;DHT22;2352;48.180;11.478;2023-09-18T10:24:28;23.20;99.90
4677;DHT22;2352;48.180;11.478;2023-09-18T10:27:36;23.40;99.90
4677;DHT22;2352;48.180;11.478;2023-09-18T10:30:40;23.50;99.90
4677;DHT22;2352;48.180;11.478;2023-09-18T10:33:45;23.30;99.90
4677;DHT22;2352;48.180;11.478;2023-09-18T10:36:53;23.40;99.90
4677;DHT22;2352;48.180;11.478;2023-09-18T10:39:57;23.30;99.90
4677;DHT22;2352;48.180;11.478;2023-09-18T10:43:02;23.40;99.90
4677;DHT22;2352;48.180;11.478;2023-09-18T10:46:11;23.40;99.90
4677;DHT22;2352;48.180;11.478;2023-09-18T10:49:15;23.20;99.90
4677;DHT22;2352;48.180;11.478;2023-09-18T10:52:20;23.50;99.90
4677;DHT22;2352;48.180;11.478;2023-09-18T10:55:23;23.70;99.90
4677;DHT22;2352;48.180;11.478;2023-09-18T10:58:27;23.70;99.90
4677;DHT22;2352;48.180;11.478;2023-09-18T11:01:30;23.50;99.90
4677;DHT22;2352;48.180;11.478;2023-09-18T11:04:33;23.60;99.90
4677;DHT22;2352;48.180;11.478;2023-09-18T11:07:39;23.50;99.90
4677;DHT22;2352;48.180;11.478;2023-09-18T11:10:56;23.40;99.30
4677;DHT22;2352;48.180;11.478;2023-09-18T11:14:00;23.50;99.90
4677;DHT22;2352;48.180;11.478;2023-09-18T11:17:06;23.70;99.90
4677;DHT22;2352;48.180;11.478;2023-09-18T11:20:16;23.70;99.70
4677;DHT22;2352;48.180;11.478;2023-09-18T11:23:34;23.80;99.50
4677;DHT22;2352;48.180;11.478;2023-09-18T11:26:40;23.70;99.10
4677;DHT22;2352;48.180;11.478;2023-09-18T11:29:44;23.50;99.10
4677;DHT22;2352;48.180;11.478;2023-09-18T11:32:52;23.60;99.40
4677;DHT22;2352;48.180;11.478;2023-09-18T11:35:55;23.40;98.80
4677;DHT22;2352;48.180;11.478;2023-09-18T11:39:01;23.20;99.40
4677;DHT22;2352;48.180;11.478;2023-09-18T11:42:10;23.10;99.90
4677;DHT22;2352;48.180;11.478;2023-09-18T11:45:16;22.60;99.90
4677;DHT22;2352;48.180;11.478;2023-09-18T11:48:20;22.70;99.90
4677;DHT22;2352;48.180;11.478;2023-09-18T11:51:27;22.80;99.90
4677;DHT22;2352;48.180;11.478;2023-09-18T11:54:33;22.70;99.90
4677;DHT22;2352;48.180;11.478;2023-09-18T11:57:37;22.40;99.90
4677;DHT22;2352;48.180;11.478;2023-09-18T12:00:44;22.30;99.90
4677;DHT22;2352;48.180;11.478;2023-09-18T12:03:53;22.10;99.90
4677;DHT22;2352;48.180;11.478;2023-09-18T12:06:57;22.00;99.90
4677;DHT22;2352;48.180;11.478;2023-09-18T12:10:06;21.80;99.90
4677;DHT22;2352;48.180;11.478;2023-09-18T12:13:12;21.80;99.90
4677;DHT22;2352;48.180;11.478;2023-09-18T12:16:16;21.50;99.90
4677;DHT22;2352;48.180;11.478;2023-09-18T12:19:20;21.60;99.90
4677;DHT22;2352;48.180;11.478;2023-09-18T12:22:27;21.50;99.90
4677;DHT22;2352;48.180;11.478;2023-09-18T12:25:32;21.30;99.90
4677;DHT22;2352;48.180;11.478;2023-09-18T12:28:36;21.50;99.90
4677;DHT22;2352;48.180;11.478;2023-09-18T12:31:39;21.40;99.90
4677;DHT22;2352;48.180;11.478;2023-09-18T12:34:42;21.20;99.90
4677;DHT22;2352;48.180;11.478;2023-09-18T12:37:45;21.20;99.90
4677;DHT22;2352;48.180;11.478;2023-09-18T12:40:50;21.20;99.90
4677;DHT22;2352;48.180;11.478;2023-09-18T12:43:54;20.80;99.90
4677;DHT22;2352;48.180;11.478;2023-09-18T12:46:58;21.00;99.90
4677;DHT22;2352;48.180;11.478;2023-09-18T12:50:02;20.80;99.90
4677;DHT22;2352;48.180;11.478;2023-09-18T12:53:10;20.40;99.90
4677;DHT22;2352;48.180;11.478;2023-09-18T12:56:14;20.50;99.90
4677;DHT22;2352;48.180;11.478;2023-09-18T12:59:19;20.20;99.90
4677;DHT22;2352;48.180;11.478;2023-09-18T13:02:23;20.00;99.90
4677;DHT22;2352;48.180;11.478;2023-09-18T13:05:31;20.10;99.90
4677;DHT22;2352;48.180;11.478;2023-09-18T13:08:35;20.00;99.90
4677;DHT22;2352;48.180;11.478;2023-09-18T13:11:53;20.00;99.90
4677;DHT22;2352;48.180;11.478;2023-09-18T13:15:01;20.10;99.90
4677;DHT22;2352;48.180;11.478;2023-09-18T13:18:09;20.00;99.90
4677;DHT22;2352;48.180;11.478;2023-09-18T13:21:13;20.10;99.90
4677;DHT22;2352;48.180;11.478;2023-09-18T13:24:27;20.10;99.90
4677;DHT22;2352;48.180;11.478;2023-09-18T13:27:31;20.10;99.90
4677;DHT22;2352;48.180;11.478;2023-09-18T13:30:36;20.00;99.90
4677;DHT22;2352;48.180;11.478;2023-09-18T13:33:41;19.90;99.90
4677;DHT22;2352;48.180;11.478;2023-09-18T13:36:47;20.00;99.90
4677;DHT22;2352;48.180;11.478;2023-09-18T13:39:50;20.00;99.90
4677;DHT22;2352;48.180;11.478;2023-09-18T13:42:54;19.90;99.90
4677;DHT22;2352;48.180;11.478;2023-09-18T13:45:58;20.00;99.90
4677;DHT22;2352;48.180;11.478;2023-09-18T13:49:01;20.10;99.90
4677;DHT22;2352;48.180;11.478;2023-09-18T13:52:05;20.10;99.90
4677;DHT22;2352;48.180;11.478;2023-09-18T13:55:09;20.10;99.90
4677;DHT22;2352;48.180;11.478;2023-09-18T13:58:13;20.00;99.90
4677;DHT22;2352;48.180;11.478;2023-09-18T14:01:16;20.20;99.90
4677;DHT22;2352;48.180;11.478;2023-09-18T14:04:21;20.40;99.90
4677;DHT22;2352;48.180;11.478;2023-09-18T14:07:24;20.40;99.90
4677;DHT22;2352;48.180;11.478;2023-09-18T14:10:27;20.50;99.90
4677;DHT22;2352;48.180;11.478;2023-09-18T14:13:32;20.50;99.90
4677;DHT22;2352;48.180;11.478;2023-09-18T14:16:36;20.80;99.90
4677;DHT22;2352;48.180;11.478;2023-09-18T14:19:39;20.80;99.90
4677;DHT22;2352;48.180;11.478;2023-09-18T14:22:42;21.10;99.90
4677;DHT22;2352;48.180;11.478;2023-09-18T14:25:45;21.20;99.90
4677;DHT22;2352;48.180;11.478;2023-09-18T14:28:49;21.30;99.90
4677;DHT22;2352;48.180;11.478;2023-09-18T14:31:53;21.20;99.90
4677;DHT22;2352;48.180;11.478;2023-09-18T14:34:56;21.20;99.90
4677;DHT22;2352;48.180;11.478;2023-09-18T14:38:00;21.20;99.90
4677;DHT22;2352;48.180;11.478;2023-09-18T14:41:06;21.10;99.90
4677;DHT22;2352;48.180;11.478;2023-09-18T14:44:10;21.10;99.90
4677;DHT22;2352;48.180;11.478;2023-09-18T14:47:13;21.20;99.90
4677;DHT22;2352;48.180;11.478;2023-09-18T14:50:24;21.10;99.90
4677;DHT22;2352;48.180;11.478;2023-09-18T14:53:27;20.90;99.90
4677;DHT22;2352;48.180;11.478;2023-09-18T14:56:30;20.90;99.90
4677;DHT22;2352;48.180;11.478;2023-09-18T14:59:35;21.00;99.90
4677;DHT22;2352;48.180;11.478;2023-09-18T15:02:43;21.00;99.90
4677;DHT22;2352;48.180;11.478;2023-09-18T15:05:46;21.00;99.90
4677;DHT22;2352;48.180;11.478;2023-09-18T15:08:49;21.10;99.90
4677;DHT22;2352;48.180;11.478;2023-09-18T15:11:52;21.20;99.90
4677;DHT22;2352;48.180;11.478;2023-09-18T15:14:57;21.10;99.90
4677;DHT22;2352;48.180;11.478;2023-09-18T15:18:00;20.90;99.90
4677;DHT22;2352;48.180;11.478;2023-09-18T15:21:03;21.10;99.90
4677;DHT22;2352;48.180;11.478;2023-09-18T15:24:06;20.90;99.90
4677;DHT22;2352;48.180;11.478;2023-09-18T15:27:10;21.00;99.90
4677;DHT22;2352;48.180;11.478;2023-09-18T15:30:15;21.00;99.90
4677;DHT22;2352;48.180;11.478;2023-09-18T15:33:18;20.80;99.90
4677;DHT22;2352;48.180;11.478;2023-09-18T15:36:24;20.70;99.90
4677;DHT22;2352;48.180;11.478;2023-09-18T15:39:27;20.80;99.90
4677;DHT22;2352;48.180;11.478;2023-09-18T15:42:31;20.80;99.90
4677;DHT22;2352;48.180;11.478;2023-09-18T15:45:36;20.80;99.90
4677;DHT22;2352;48.180;11.478;2023-09-18T15:48:39;20.80;99.90
4677;DHT22;2352;48.180;11.478;2023-09-18T15:51:42;21.00;99.90
4677;DHT22;2352;48.180;11.478;2023-09-18T15:54:46;21.00;99.90
4677;DHT22;2352;48.180;11.478;2023-09-18T15:57:49;20.80;99.90
4677;DHT22;2352;48.180;11.478;2023-09-18T16:00:55;20.70;99.90
4677;DHT22;2352;48.180;11.478;2023-09-18T16:04:00;20.70;99.90
4677;DHT22;2352;48.180;11.478;2023-09-18T16:07:03;20.80;99.90
4677;DHT22;2352;48.180;11.478;2023-09-18T16:10:07;20.90;99.90
4677;DHT22;2352;48.180;11.478;2023-09-18T16:13:11;20.90;99.90
4677;DHT22;2352;48.180;11.478;2023-09-18T16:16:15;20.90;99.90
4677;DHT22;2352;48.180;11.478;2023-09-18T16:19:19;20.90;99.90
4677;DHT22;2352;48.180;11.478;2023-09-18T16:22:24;20.90;99.90
4677;DHT22;2352;48.180;11.478;2023-09-18T16:25:28;20.90;99.90
4677;DHT22;2352;48.180;11.478;2023-09-18T16:28:32;21.00;99.90
4677;DHT22;2352;48.180;11.478;2023-09-18T16:31:36;21.00;99.90
4677;DHT22;2352;48.180;11.478;2023-09-18T16:34:39;20.90;99.90
4677;DHT22;2352;48.180;11.478;2023-09-18T16:37:44;20.90;99.90
4677;DHT22;2352;48.180;11.478;2023-09-18T16:40:48;20.80;99.90
4677;DHT22;2352;48.180;11.478;2023-09-18T16:43:52;20.70;99.90
4677;DHT22;2352;48.180;11.478;2023-09-18T16:46:57;20.70;99.90
4677;DHT22;2352;48.180;11.478;2023-09-18T16:50:00;20.80;99.90
4677;DHT22;2352;48.180;11.478;2023-09-18T16:53:03;20.70;99.90
4677;DHT22;2352;48.180;11.478;2023-09-18T16:56:07;20.70;99.90
4677;DHT22;2352;48.180;11.478;2023-09-18T16:59:10;20.60;99.90
4677;DHT22;2352;48.180;11.478;2023-09-18T17:02:15;20.50;99.90
4677;DHT22;2352;48.180;11.478;2023-09-18T17:05:18;20.40;99.90
4677;DHT22;2352;48.180;11.478;2023-09-18T17:08:21;20.30;99.90
4677;DHT22;2352;48.180;11.478;2023-09-18T17:11:24;20.30;99.90
4677;DHT22;2352;48.180;11.478;2023-09-18T17:14:28;20.30;99.90
4677;DHT22;2352;48.180;11.478;2023-09-18T17:17:32;20.20;99.90
4677;DHT22;2352;48.180;11.478;2023-09-18T17:20:36;20.20;99.90
4677;DHT22;2352;48.180;11.478;2023-09-18T17:23:39;20.30;99.90
4677;DHT22;2352;48.180;11.478;2023-09-18T17:26:43;20.20;99.90
4677;DHT22;2352;48.180;11.478;2023-09-18T17:29:46;20.10;99.90
4677;DHT22;2352;48.180;11.478;2023-09-18T17:32:53;19.90;99.90
4677;DHT22;2352;48.180;11.478;2023-09-18T17:35:56;19.90;99.90
4677;DHT22;2352;48.180;11.478;2023-09-18T17:38:59;19.70;99.90
4677;DHT22;2352;48.180;11.478;2023-09-18T17:42:03;19.80;99.90
4677;DHT22;2352;48.180;11.478;2023-09-18T17:45:07;19.60;99.90
4677;DHT22;2352;48.180;11.478;2023-09-18T17:48:11;19.60;99.90
4677;DHT22;2352;48.180;11.478;2023-09-18T17:51:15;19.60;99.90
4677;DHT22;2352;48.180;11.478;2023-09-18T17:54:18;19.60;99.90
4677;DHT22;2352;48.180;11.478;2023-09-18T17:57:21;19.50;99.90
4677;DHT22;2352;48.180;11.478;2023-09-18T18:00:24;19.50;99.90
4677;DHT22;2352;48.180;11.478;2023-09-18T18:03:29;19.50;99.90
4677;DHT22;2352;48.180;11.478;2023-09-18T18:06:33;19.60;99.90
4677;DHT22;2352;48.180;11.478;2023-09-18T18:09:36;19.60;99.90
4677;DHT22;2352;48.180;11.478;2023-09-18T18:12:39;19.60;99.90
4677;DHT22;2352;48.180;11.478;2023-09-18T18:15:42;19.60;99.90
4677;DHT22;2352;48.180;11.478;2023-09-18T18:18:47;19.60;99.90
4677;DHT22;2352;48.180;11.478;2023-09-18T18:21:50;19.60;99.90
4677;DHT22;2352;48.180;11.478;2023-09-18T18:24:53;19.70;99.90
4677;DHT22;2352;48.180;11.478;2023-09-18T18:27:58;19.60;99.90
4677;DHT22;2352;48.180;11.478;2023-09-18T18:31:01;19.60;99.90
4677;DHT22;2352;48.180;11.478;2023-09-18T18:34:05;19.80;99.90
4677;DHT22;2352;48.180;11.478;2023-09-18T18:37:09;19.70;99.90
4677;DHT22;2352;48.180;11.478;2023-09-18T18:40:12;19.60;99.90
4677;DHT22;2352;48.180;11.478;2023-09-18T18:43:16;19.60;99.90
4677;DHT22;2352;48.180;11.478;2023-09-18T18:46:19;19.60;99.90
4677;DHT22;2352;48.180;11.478;2023-09-18T18:49:24;19.50;99.90
4677;DHT22;2352;48.180;11.478;2023-09-18T18:52:28;19.50;99.90
4677;DHT22;2352;48.180;11.478;2023-09-18T18:55:32;19.50;99.90
4677;DHT22;2352;48.180;11.478;2023-09-18T18:58:35;19.50;99.90
4677;DHT22;2352;48.180;11.478;2023-09-18T19:01:38;19.60;99.90
4677;DHT22;2352;48.180;11.478;2023-09-18T19:04:43;19.60;99.90
4677;DHT22;2352;48.180;11.478;2023-09-18T19:07:46;19.50;99.90
4677;DHT22;2352;48.180;11.478;2023-09-18T19:10:49;19.40;99.90
4677;DHT22;2352;48.180;11.478;2023-09-18T19:13:53;19.50;99.90
4677;DHT22;2352;48.180;11.478;2023-09-18T19:16:56;19.50;99.90
4677;DHT22;2352;48.180;11.478;2023-09-18T19:20:02;19.50;99.90
4677;DHT22;2352;48.180;11.478;2023-09-18T19:23:06;19.50;99.90
4677;DHT22;2352;48.180;11.478;2023-09-18T19:26:09;19.60;99.90
4677;DHT22;2352;48.180;11.478;2023-09-18T19:29:13;19.60;99.90
4677;DHT22;2352;48.180;11.478;2023-09-18T19:32:18;19.60;99.90
4677;DHT22;2352;48.180;11.478;2023-09-18T19:35:22;19.70;99.90
4677;DHT22;2352;48.180;11.478;2023-09-18T19:38:25;19.50;99.90
4677;DHT22;2352;48.180;11.478;2023-09-18T19:41:29;19.50;99.90